sensor_id;sensor_type;location;lat;lon;timestamp;pressure;altitude;pressure_sealevel;temperature;humidity
46714;BME280;32445;51.376;10.874;2023-11-21T00:03:08;98778.06;;;7.12;58.49
46714;BME280;32445;51.376;10.874;2023-11-21T00:08:11;98792.84;;;7.05;58.70
46714;BME280;32445;51.376;10.874;2023-11-21T00:13:11;98784.50;;;6.95;58.72
46714;BME280;32445;51.376;10.874;2023-11-21T00:18:13;98787.25;;;6.86;58.49
46714;BME280;32445;51.376;10.874;2023-11-21T00:23:14;98792.59;;;6.78;58.52
46714;BME280;32445;51.376;10.874;2023-11-21T00:28:14;98791.03;;;6.71;58.44
46714;BME280;32445;51.376;10.874;2023-11-21T00:33:15;98792.09;;;6.62;58.60
46714;BME280;32445;51.376;10.874;2023-11-21T00:38:15;98785.38;;;6.55;58.50
46714;BME280;32445;51.376;10.874;2023-11-21T00:43:18;98792.41;;;6.47;58.43
46714;BME280;32445;51.376;10.874;2023-11-21T00:48:18;98795.13;;;6.39;58.39
46714;BME280;32445;51.376;10.874;2023-11-21T00:53:19;98797.84;;;6.33;58.53
46714;BME280;32445;51.376;10.874;2023-11-21T00:58:22;98807.44;;;6.26;58.66
46714;BME280;32445;51.376;10.874;2023-11-21T01:03:22;98812.69;;;6.20;58.42
46714;BME280;32445;51.376;10.874;2023-11-21T01:08:22;98815.38;;;6.15;58.31
46714;BME280;32445;51.376;10.874;2023-11-21T01:13:24;98818.88;;;6.11;58.34
46714;BME280;32445;51.376;10.874;2023-11-21T01:18:28;98827.56;;;6.05;58.50
46714;BME280;32445;51.376;10.874;2023-11-21T01:23:29;98844.84;;;6.02;58.51
46714;BME280;32445;51.376;10.874;2023-11-21T01:28:30;98847.47;;;5.96;58.20
46714;BME280;32445;51.376;10.874;2023-11-21T01:33:30;98858.69;;;5.93;58.33
46714;BME280;32445;51.376;10.874;2023-11-21T01:38:30;98858.75;;;5.88;58.47
46714;BME280;32445;51.376;10.874;2023-11-21T01:43:32;98859.69;;;5.84;58.42
46714;BME280;32445;51.376;10.874;2023-11-21T01:48:33;98858.94;;;5.79;58.31
46714;BME280;32445;51.376;10.874;2023-11-21T01:53:34;98873.59;;;5.74;58.59
46714;BME280;32445;51.376;10.874;2023-11-21T01:58:36;98869.38;;;5.70;58.36
46714;BME280;32445;51.376;10.874;2023-11-21T02:03:37;98861.69;;;5.67;58.47
46714;BME280;32445;51.376;10.874;2023-11-21T02:08:37;98864.34;;;5.64;58.46
46714;BME280;32445;51.376;10.874;2023-11-21T02:13:38;98878.97;;;5.62;58.31
46714;BME280;32445;51.376;10.874;2023-11-21T02:18:39;98867.88;;;5.57;58.34
46714;BME280;32445;51.376;10.874;2023-11-21T02:23:42;98870.50;;;5.53;58.24
46714;BME280;32445;51.376;10.874;2023-11-21T02:28:44;98869.69;;;5.50;58.35
46714;BME280;32445;51.376;10.874;2023-11-21T02:33:44;98874.91;;;5.47;58.37
46714;BME280;32445;51.376;10.874;2023-11-21T02:38:45;98876.66;;;5.45;58.23
46714;BME280;32445;51.376;10.874;2023-11-21T02:43:45;98875.84;;;5.41;58.31
46714;BME280;32445;51.376;10.874;2023-11-21T02:48:46;98875.91;;;5.36;58.29
46714;BME280;32445;51.376;10.874;2023-11-21T02:53:46;98879.34;;;5.35;58.18
46714;BME280;32445;51.376;10.874;2023-11-21T02:58:46;98872.53;;;5.31;58.07
46714;BME280;32445;51.376;10.874;2023-11-21T03:03:47;98868.28;;;5.30;58.08
46714;BME280;32445;51.376;10.874;2023-11-21T03:08:51;98864.00;;;5.29;58.32
46714;BME280;32445;51.376;10.874;2023-11-21T03:13:51;98869.19;;;5.28;58.10
46714;BME280;32445;51.376;10.874;2023-11-21T03:18:51;98858.91;;;5.26;58.27
46714;BME280;32445;51.376;10.874;2023-11-21T03:23:52;98868.38;;;5.24;58.18
46714;BME280;32445;51.376;10.874;2023-11-21T03:28:53;98866.72;;;5.22;58.20
46714;BME280;32445;51.376;10.874;2023-11-21T03:33:53;98871.03;;;5.18;58.32
46714;BME280;32445;51.376;10.874;2023-11-21T03:38:54;98883.09;;;5.16;58.23
46714;BME280;32445;51.376;10.874;2023-11-21T03:43:55;98887.41;;;5.12;58.34
46714;BME280;32445;51.376;10.874;2023-11-21T03:48:55;98891.75;;;5.09;58.19
46714;BME280;32445;51.376;10.874;2023-11-21T03:53:56;98896.06;;;5.07;58.41
46714;BME280;32445;51.376;10.874;2023-11-21T03:58:56;98902.09;;;5.02;58.46
46714;BME280;32445;51.376;10.874;2023-11-21T04:03:57;98903.00;;;5.01;58.40
46714;BME280;32445;51.376;10.874;2023-11-21T04:08:57;98907.31;;;4.99;58.21
46714;BME280;32445;51.376;10.874;2023-11-21T04:13:58;98903.91;;;4.97;58.47
46714;BME280;32445;51.376;10.874;2023-11-21T04:18:58;98921.94;;;4.96;58.16
46714;BME280;32445;51.376;10.874;2023-11-21T04:23:59;98922.88;;;4.90;58.18
46714;BME280;32445;51.376;10.874;2023-11-21T04:28:59;98922.88;;;4.89;58.30
46714;BME280;32445;51.376;10.874;2023-11-21T04:33:59;98932.31;;;4.87;58.42
46714;BME280;32445;51.376;10.874;2023-11-21T04:39:00;98934.06;;;4.84;58.19
46714;BME280;32445;51.376;10.874;2023-11-21T04:44:00;98934.06;;;4.84;58.32
46714;BME280;32445;51.376;10.874;2023-11-21T04:49:01;98939.22;;;4.84;58.20
46714;BME280;32445;51.376;10.874;2023-11-21T04:54:01;98938.31;;;4.85;58.11
46714;BME280;32445;51.376;10.874;2023-11-21T04:59:01;98938.31;;;4.85;58.01
46714;BME280;32445;51.376;10.874;2023-11-21T05:04:02;98931.47;;;4.86;58.25
46714;BME280;32445;51.376;10.874;2023-11-21T05:09:02;98936.59;;;4.88;58.28
46714;BME280;32445;51.376;10.874;2023-11-21T05:14:03;98941.75;;;4.88;58.23
46714;BME280;32445;51.376;10.874;2023-11-21T05:19:05;98944.31;;;4.88;58.10
46714;BME280;32445;51.376;10.874;2023-11-21T05:24:08;98950.31;;;4.88;58.07
46714;BME280;32445;51.376;10.874;2023-11-21T05:29:09;98958.03;;;4.88;58.20
46714;BME280;32445;51.376;10.874;2023-11-21T05:34:11;98962.31;;;4.88;58.00
46714;BME280;32445;51.376;10.874;2023-11-21T05:39:11;98970.03;;;4.88;58.17
46714;BME280;32445;51.376;10.874;2023-11-21T05:44:12;98975.19;;;4.88;58.15
46714;BME280;32445;51.376;10.874;2023-11-21T05:49:14;98971.75;;;4.87;58.03
46714;BME280;32445;51.376;10.874;2023-11-21T05:54:15;98976.88;;;4.87;58.08
46714;BME280;32445;51.376;10.874;2023-11-21T05:59:16;98979.47;;;4.89;58.16
46714;BME280;32445;51.376;10.874;2023-11-21T06:04:17;98993.19;;;4.88;58.06
46714;BME280;32445;51.376;10.874;2023-11-21T06:09:18;99000.03;;;4.90;58.13
46714;BME280;32445;51.376;10.874;2023-11-21T06:14:19;99010.28;;;4.92;57.86
46714;BME280;32445;51.376;10.874;2023-11-21T06:19:19;99012.84;;;4.93;58.03
46714;BME280;32445;51.376;10.874;2023-11-21T06:24:20;99018.81;;;4.95;57.96
46714;BME280;32445;51.376;10.874;2023-11-21T06:29:21;99017.94;;;4.98;57.77
46714;BME280;32445;51.376;10.874;2023-11-21T06:34:22;99030.75;;;5.01;57.89
46714;BME280;32445;51.376;10.874;2023-11-21T06:39:22;99036.72;;;5.05;57.85
46714;BME280;32445;51.376;10.874;2023-11-21T06:44:23;99040.97;;;5.09;57.58
46714;BME280;32445;51.376;10.874;2023-11-21T06:49:23;99037.47;;;5.13;57.59
46714;BME280;32445;51.376;10.874;2023-11-21T06:54:24;99040.88;;;5.15;57.79
46714;BME280;32445;51.376;10.874;2023-11-21T06:59:24;99038.28;;;5.18;57.86
46714;BME280;32445;51.376;10.874;2023-11-21T07:04:25;99041.66;;;5.23;57.48
46714;BME280;32445;51.376;10.874;2023-11-21T07:09:28;99046.72;;;5.29;57.63
46714;BME280;32445;51.376;10.874;2023-11-21T07:14:28;99058.69;;;5.33;57.50
46714;BME280;32445;51.376;10.874;2023-11-21T07:19:29;99056.88;;;5.40;57.51
46714;BME280;32445;51.376;10.874;2023-11-21T07:24:30;99071.41;;;5.47;57.46
46714;BME280;32445;51.376;10.874;2023-11-21T07:29:32;99076.47;;;5.52;57.30
46714;BME280;32445;51.376;10.874;2023-11-21T07:34:33;99087.56;;;5.55;57.57
46714;BME280;32445;51.376;10.874;2023-11-21T07:39:33;99087.53;;;5.59;57.53
46714;BME280;32445;51.376;10.874;2023-11-21T07:44:33;99100.41;;;5.62;57.55
46714;BME280;32445;51.376;10.874;2023-11-21T07:49:34;99101.19;;;5.65;57.87
46714;BME280;32445;51.376;10.874;2023-11-21T07:54:34;99107.16;;;5.70;57.84
46714;BME280;32445;51.376;10.874;2023-11-21T07:59:35;99112.16;;;5.80;57.68
46714;BME280;32445;51.376;10.874;2023-11-21T08:04:36;99113.06;;;5.76;58.23
46714;BME280;32445;51.376;10.874;2023-11-21T08:09:36;99124.19;;;5.81;58.41
46714;BME280;32445;51.376;10.874;2023-11-21T08:14:36;99124.97;;;5.87;58.39
46714;BME280;32445;51.376;10.874;2023-11-21T08:19:39;99130.84;;;5.97;58.50
46714;BME280;32445;51.376;10.874;2023-11-21T08:24:39;99135.06;;;6.03;58.96
46714;BME280;32445;51.376;10.874;2023-11-21T08:29:39;99130.78;;;6.05;59.51
46714;BME280;32445;51.376;10.874;2023-11-21T08:34:40;99141.81;;;6.12;59.75
46714;BME280;32445;51.376;10.874;2023-11-21T08:39:47;99139.97;;;6.21;59.60
46714;BME280;32445;51.376;10.874;2023-11-21T08:44:48;99139.81;;;6.34;59.63
46714;BME280;32445;51.376;10.874;2023-11-21T08:49:48;99144.81;;;6.43;59.81
46714;BME280;32445;51.376;10.874;2023-11-21T08:54:49;99149.00;;;6.50;60.19
46714;BME280;32445;51.376;10.874;2023-11-21T08:59:56;99149.75;;;6.58;60.43
46714;BME280;32445;51.376;10.874;2023-11-21T09:04:56;99154.78;;;6.68;60.22
46714;BME280;32445;51.376;10.874;2023-11-21T09:09:57;99163.25;;;6.74;61.17
46714;BME280;32445;51.376;10.874;2023-11-21T09:14:58;99168.34;;;6.81;61.79
46714;BME280;32445;51.376;10.874;2023-11-21T09:19:58;99174.25;;;6.86;62.45
46714;BME280;32445;51.376;10.874;2023-11-21T09:24:58;99175.03;;;6.91;62.50
46714;BME280;32445;51.376;10.874;2023-11-21T09:29:59;99197.28;;;6.98;62.89
46714;BME280;32445;51.376;10.874;2023-11-21T09:34:59;99204.00;;;7.07;62.81
46714;BME280;32445;51.376;10.874;2023-11-21T09:40:02;99201.31;;;7.13;63.00
46714;BME280;32445;51.376;10.874;2023-11-21T09:45:06;99205.63;;;7.14;63.46
46714;BME280;32445;51.376;10.874;2023-11-21T09:50:11;99212.31;;;7.24;63.03
46714;BME280;32445;51.376;10.874;2023-11-21T09:55:16;99217.38;;;7.31;63.44
46714;BME280;32445;51.376;10.874;2023-11-21T10:00:19;99211.16;;;7.42;62.86
46714;BME280;32445;51.376;10.874;2023-11-21T10:05:23;99209.28;;;7.49;62.45
46714;BME280;32445;51.376;10.874;2023-11-21T10:10:24;99213.38;;;7.62;62.09
46714;BME280;32445;51.376;10.874;2023-11-21T10:15:25;99203.78;;;7.68;62.43
46714;BME280;32445;51.376;10.874;2023-11-21T10:20:26;99205.34;;;7.76;62.10
46714;BME280;32445;51.376;10.874;2023-11-21T10:25:26;99209.50;;;7.85;62.00
46714;BME280;32445;51.376;10.874;2023-11-21T10:30:34;99216.38;;;7.85;62.43
46714;BME280;32445;51.376;10.874;2023-11-21T10:40:47;99228.81;;;8.09;61.74
46714;BME280;32445;51.376;10.874;2023-11-21T10:45:47;99237.19;;;8.21;61.71
46714;BME280;32445;51.376;10.874;2023-11-21T10:50:48;99239.72;;;8.25;61.57
46714;BME280;32445;51.376;10.874;2023-11-21T10:55:48;99241.47;;;8.23;62.00
46714;BME280;32445;51.376;10.874;2023-11-21T11:00:49;99235.34;;;8.27;61.74
46714;BME280;32445;51.376;10.874;2023-11-21T11:05:52;99249.06;;;8.31;62.07
46714;BME280;32445;51.376;10.874;2023-11-21T11:10:55;99260.13;;;8.38;61.99
46714;BME280;32445;51.376;10.874;2023-11-21T11:15:58;99251.56;;;8.36;62.45
46714;BME280;32445;51.376;10.874;2023-11-21T11:26:37;99259.25;;;8.39;62.94
46714;BME280;32445;51.376;10.874;2023-11-21T11:32:00;99272.88;;;8.48;62.78
46714;BME280;32445;51.376;10.874;2023-11-21T11:37:06;99278.97;;;8.46;62.92
46714;BME280;32445;51.376;10.874;2023-11-21T11:42:14;99289.06;;;8.58;62.52
46714;BME280;32445;51.376;10.874;2023-11-21T11:47:15;99285.41;;;8.67;62.09
46714;BME280;32445;51.376;10.874;2023-11-21T11:52:34;99299.19;;;8.68;62.03
46714;BME280;32445;51.376;10.874;2023-11-21T11:57:36;99293.91;;;8.72;61.72
46714;BME280;32445;51.376;10.874;2023-11-21T12:02:38;99304.94;;;8.80;61.72
46714;BME280;32445;51.376;10.874;2023-11-21T12:07:55;99317.19;;;8.72;61.98
46714;BME280;32445;51.376;10.874;2023-11-21T12:12:59;99326.53;;;8.79;61.85
46714;BME280;32445;51.376;10.874;2023-11-21T12:17:59;99327.25;;;8.86;61.84
46714;BME280;32445;51.376;10.874;2023-11-21T12:23:00;99336.81;;;8.82;61.79
46714;BME280;32445;51.376;10.874;2023-11-21T12:28:01;99338.78;;;8.73;62.06
46714;BME280;32445;51.376;10.874;2023-11-21T12:33:03;99349.16;;;8.71;61.91
46714;BME280;32445;51.376;10.874;2023-11-21T12:38:04;99345.84;;;8.64;62.28
46714;BME280;32445;51.376;10.874;2023-11-21T12:43:06;99363.03;;;8.67;62.04
46714;BME280;32445;51.376;10.874;2023-11-21T12:48:07;99371.88;;;8.55;62.48
46714;BME280;32445;51.376;10.874;2023-11-21T12:53:10;99369.31;;;8.54;62.57
46714;BME280;32445;51.376;10.874;2023-11-21T12:58:13;99395.16;;;8.55;62.43
46714;BME280;32445;51.376;10.874;2023-11-21T13:03:16;99395.06;;;8.61;62.22
46714;BME280;32445;51.376;10.874;2023-11-21T13:08:17;99403.59;;;8.65;62.15
46714;BME280;32445;51.376;10.874;2023-11-21T13:13:23;99405.44;;;8.60;62.08
46714;BME280;32445;51.376;10.874;2023-11-21T13:18:25;99411.66;;;8.49;62.13
46714;BME280;32445;51.376;10.874;2023-11-21T13:23:28;99406.91;;;8.25;62.44
46714;BME280;32445;51.376;10.874;2023-11-21T13:28:29;99404.97;;;8.38;62.14
46714;BME280;32445;51.376;10.874;2023-11-21T13:33:33;99419.91;;;8.22;62.36
46714;BME280;32445;51.376;10.874;2023-11-21T13:38:37;99429.28;;;8.27;62.25
46714;BME280;32445;51.376;10.874;2023-11-21T13:43:42;99443.56;;;7.99;62.64
46714;BME280;32445;51.376;10.874;2023-11-21T13:48:48;99451.00;;;8.19;62.20
46714;BME280;32445;51.376;10.874;2023-11-21T13:53:55;99459.53;;;8.22;62.23
46714;BME280;32445;51.376;10.874;2023-11-21T13:58:55;99470.03;;;8.14;62.16
46714;BME280;32445;51.376;10.874;2023-11-21T14:03:57;99471.88;;;8.06;62.14
46714;BME280;32445;51.376;10.874;2023-11-21T14:09:01;99480.41;;;8.11;62.09
46714;BME280;32445;51.376;10.874;2023-11-21T14:14:05;99495.72;;;8.25;61.46
46714;BME280;32445;51.376;10.874;2023-11-21T14:19:06;99495.75;;;8.22;61.14
46714;BME280;32445;51.376;10.874;2023-11-21T14:24:14;99504.25;;;8.29;61.00
46714;BME280;32445;51.376;10.874;2023-11-21T14:29:18;99516.50;;;8.18;61.26
46714;BME280;32445;51.376;10.874;2023-11-21T14:34:23;99511.25;;;8.22;61.00
46714;BME280;32445;51.376;10.874;2023-11-21T14:39:24;99515.47;;;8.28;60.58
46714;BME280;32445;51.376;10.874;2023-11-21T14:44:27;99521.53;;;8.27;60.69
46714;BME280;32445;51.376;10.874;2023-11-21T14:49:32;99535.63;;;8.07;60.89
46714;BME280;32445;51.376;10.874;2023-11-21T14:54:45;99554.78;;;7.95;61.02
46714;BME280;32445;51.376;10.874;2023-11-21T14:59:48;99575.81;;;7.68;61.46
46714;BME280;32445;51.376;10.874;2023-11-21T15:04:52;99578.34;;;7.74;61.46
46714;BME280;32445;51.376;10.874;2023-11-21T15:09:56;99578.19;;;7.83;61.15
46714;BME280;32445;51.376;10.874;2023-11-21T15:14:56;99583.22;;;7.95;60.93
46714;BME280;32445;51.376;10.874;2023-11-21T15:19:58;99600.41;;;7.98;60.64
46714;BME280;32445;51.376;10.874;2023-11-21T15:25:00;99601.38;;;7.91;60.37
46714;BME280;32445;51.376;10.874;2023-11-21T15:30:08;99606.59;;;7.85;60.78
46714;BME280;32445;51.376;10.874;2023-11-21T15:35:08;99616.16;;;7.79;60.56
46714;BME280;32445;51.376;10.874;2023-11-21T15:40:13;99626.66;;;7.67;60.64
46714;BME280;32445;51.376;10.874;2023-11-21T15:45:15;99631.78;;;7.70;60.61
46714;BME280;32445;51.376;10.874;2023-11-21T15:50:19;99641.25;;;7.71;60.53
46714;BME280;32445;51.376;10.874;2023-11-21T15:55:19;99644.72;;;7.69;60.53
46714;BME280;32445;51.376;10.874;2023-11-21T16:00:19;99643.91;;;7.62;60.65
46714;BME280;32445;51.376;10.874;2023-11-21T16:05:22;99653.44;;;7.58;60.56
46714;BME280;32445;51.376;10.874;2023-11-21T16:10:25;99663.00;;;7.50;60.69
46714;BME280;32445;51.376;10.874;2023-11-21T16:15:26;99669.94;;;7.48;60.47
46714;BME280;32445;51.376;10.874;2023-11-21T16:20:26;99675.16;;;7.40;60.53
46714;BME280;32445;51.376;10.874;2023-11-21T16:25:27;99668.38;;;7.30;60.68
46714;BME280;32445;51.376;10.874;2023-11-21T16:30:27;99680.50;;;7.23;60.69
46714;BME280;32445;51.376;10.874;2023-11-21T16:35:28;99688.19;;;7.31;60.51
46714;BME280;32445;51.376;10.874;2023-11-21T16:40:28;99698.47;;;7.34;60.39
46714;BME280;32445;51.376;10.874;2023-11-21T16:45:28;99710.53;;;7.35;60.29
46714;BME280;32445;51.376;10.874;2023-11-21T16:50:29;99717.38;;;7.39;59.99
46714;BME280;32445;51.376;10.874;2023-11-21T16:55:29;99722.53;;;7.41;59.62
46714;BME280;32445;51.376;10.874;2023-11-21T17:00:30;99723.34;;;7.43;59.63
46714;BME280;32445;51.376;10.874;2023-11-21T17:05:30;99735.41;;;7.42;59.48
46714;BME280;32445;51.376;10.874;2023-11-21T17:10:31;99747.47;;;7.40;59.58
46714;BME280;32445;51.376;10.874;2023-11-21T17:15:32;99745.81;;;7.33;59.54
46714;BME280;32445;51.376;10.874;2023-11-21T17:20:32;99767.34;;;7.31;59.66
46714;BME280;32445;51.376;10.874;2023-11-21T17:25:32;99764.78;;;7.29;59.51
46714;BME280;32445;51.376;10.874;2023-11-21T17:30:33;99782.88;;;7.26;59.70
46714;BME280;32445;51.376;10.874;2023-11-21T17:35:33;99802.75;;;7.18;59.66
46714;BME280;32445;51.376;10.874;2023-11-21T17:40:34;99799.41;;;7.08;59.99
46714;BME280;32445;51.376;10.874;2023-11-21T17:45:35;99811.47;;;7.03;60.02
46714;BME280;32445;51.376;10.874;2023-11-21T17:50:36;99815.91;;;6.81;60.56
46714;BME280;32445;51.376;10.874;2023-11-21T17:55:36;99831.41;;;6.79;60.10
46714;BME280;32445;51.376;10.874;2023-11-21T18:00:36;99833.06;;;6.83;60.22
46714;BME280;32445;51.376;10.874;2023-11-21T18:05:40;99845.13;;;6.84;60.11
46714;BME280;32445;51.376;10.874;2023-11-21T18:10:40;99856.28;;;6.88;60.00
46714;BME280;32445;51.376;10.874;2023-11-21T18:15:41;99873.47;;;6.93;59.68
46714;BME280;32445;51.376;10.874;2023-11-21T18:20:41;99875.22;;;6.87;59.69
46714;BME280;32445;51.376;10.874;2023-11-21T18:25:44;99874.47;;;6.68;59.95
46714;BME280;32445;51.376;10.874;2023-11-21T18:30:45;99877.94;;;6.54;60.06
46714;BME280;32445;51.376;10.874;2023-11-21T18:35:45;99892.53;;;6.58;60.10
46714;BME280;32445;51.376;10.874;2023-11-21T18:40:48;99895.09;;;6.69;59.71
46714;BME280;32445;51.376;10.874;2023-11-21T18:45:49;99903.66;;;6.73;59.73
46714;BME280;32445;51.376;10.874;2023-11-21T18:50:49;99903.66;;;6.71;59.51
46714;BME280;32445;51.376;10.874;2023-11-21T18:55:52;99914.84;;;6.69;59.64
46714;BME280;32445;51.376;10.874;2023-11-21T19:00:52;99910.59;;;6.66;59.50
46714;BME280;32445;51.376;10.874;2023-11-21T19:05:53;99926.06;;;6.60;59.50
46714;BME280;32445;51.376;10.874;2023-11-21T19:10:53;99925.22;;;6.49;59.51
46714;BME280;32445;51.376;10.874;2023-11-21T19:15:54;99938.13;;;6.49;59.89
46714;BME280;32445;51.376;10.874;2023-11-21T19:20:55;99946.72;;;6.41;59.66
46714;BME280;32445;51.376;10.874;2023-11-21T19:26:21;99953.63;;;6.38;59.76
46714;BME280;32445;51.376;10.874;2023-11-21T19:31:30;99972.53;;;6.23;59.84
46714;BME280;32445;51.376;10.874;2023-11-21T19:36:41;99975.13;;;6.21;59.71
46714;BME280;32445;51.376;10.874;2023-11-21T19:41:45;99986.31;;;6.28;59.81
46714;BME280;32445;51.376;10.874;2023-11-21T19:46:48;99987.16;;;6.33;59.57
46714;BME280;32445;51.376;10.874;2023-11-21T19:51:49;99994.91;;;6.33;59.27
46714;BME280;32445;51.376;10.874;2023-11-21T19:56:52;99991.44;;;6.33;59.36
46714;BME280;32445;51.376;10.874;2023-11-21T20:01:52;99994.91;;;6.33;59.39
46714;BME280;32445;51.376;10.874;2023-11-21T20:06:53;100001.78;;;6.30;59.25
46714;BME280;32445;51.376;10.874;2023-11-21T20:11:56;100008.66;;;6.18;59.30
46714;BME280;32445;51.376;10.874;2023-11-21T20:17:02;100023.22;;;5.95;59.84
46714;BME280;32445;51.376;10.874;2023-11-21T20:22:16;100025.78;;;5.87;59.91
46714;BME280;32445;51.376;10.874;2023-11-21T20:27:25;100035.22;;;5.85;60.09
46714;BME280;32445;51.376;10.874;2023-11-21T20:32:30;100049.00;;;5.96;59.60
46714;BME280;32445;51.376;10.874;2023-11-21T20:37:31;100055.84;;;5.96;59.51
46714;BME280;32445;51.376;10.874;2023-11-21T20:42:34;100064.41;;;5.87;59.55
46714;BME280;32445;51.376;10.874;2023-11-21T20:47:47;100080.66;;;5.66;59.93
46714;BME280;32445;51.376;10.874;2023-11-21T20:52:55;100072.03;;;5.50;60.20
46714;BME280;32445;51.376;10.874;2023-11-21T20:57:55;100081.50;;;5.51;60.08
46714;BME280;32445;51.376;10.874;2023-11-21T21:02:59;100090.03;;;5.44;60.07
46714;BME280;32445;51.376;10.874;2023-11-21T21:07:59;100096.09;;;5.50;59.51
46714;BME280;32445;51.376;10.874;2023-11-21T21:13:00;100103.81;;;5.47;59.60
46714;BME280;32445;51.376;10.874;2023-11-21T21:18:00;100112.31;;;5.34;59.27
46714;BME280;32445;51.376;10.874;2023-11-21T21:23:05;100109.63;;;5.17;59.64
46714;BME280;32445;51.376;10.874;2023-11-21T21:28:05;100121.66;;;5.15;59.63
46714;BME280;32445;51.376;10.874;2023-11-21T21:33:06;100127.63;;;5.12;59.37
46714;BME280;32445;51.376;10.874;2023-11-21T21:38:06;100119.00;;;5.04;59.29
46714;BME280;32445;51.376;10.874;2023-11-21T21:43:07;100132.66;;;4.95;59.47
46714;BME280;32445;51.376;10.874;2023-11-21T21:48:07;100136.03;;;4.83;59.34
46714;BME280;32445;51.376;10.874;2023-11-21T21:53:07;100136.84;;;4.78;59.44
46714;BME280;32445;51.376;10.874;2023-11-21T21:58:12;100142.78;;;4.71;59.48
46714;BME280;32445;51.376;10.874;2023-11-21T22:03:12;100164.13;;;4.60;59.37
46714;BME280;32445;51.376;10.874;2023-11-21T22:08:13;100170.91;;;4.52;59.26
46714;BME280;32445;51.376;10.874;2023-11-21T22:13:13;100187.94;;;4.41;59.36
46714;BME280;32445;51.376;10.874;2023-11-21T22:18:14;100193.03;;;4.35;59.47
46714;BME280;32445;51.376;10.874;2023-11-21T22:23:14;100194.56;;;4.17;59.49
46714;BME280;32445;51.376;10.874;2023-11-21T22:28:14;100192.69;;;4.04;59.65
46714;BME280;32445;51.376;10.874;2023-11-21T22:33:15;100196.97;;;4.03;59.54
46714;BME280;32445;51.376;10.874;2023-11-21T22:38:15;100193.44;;;3.96;59.44
46714;BME280;32445;51.376;10.874;2023-11-21T22:43:16;100192.56;;;3.91;59.18
46714;BME280;32445;51.376;10.874;2023-11-21T22:48:17;100200.16;;;3.84;59.34
46714;BME280;32445;51.376;10.874;2023-11-21T22:53:17;100209.41;;;3.71;59.35
46714;BME280;32445;51.376;10.874;2023-11-21T22:58:17;100206.78;;;3.68;59.40
46714;BME280;32445;51.376;10.874;2023-11-21T23:03:18;100215.03;;;3.45;59.62
46714;BME280;32445;51.376;10.874;2023-11-21T23:08:18;100222.53;;;3.29;59.73
46714;BME280;32445;51.376;10.874;2023-11-21T23:13:19;100217.94;;;3.10;60.02
46714;BME280;32445;51.376;10.874;2023-11-21T23:18:19;100223.53;;;2.86;60.35
46714;BME280;32445;51.376;10.874;2023-11-21T23:23:27;100220.97;;;2.84;60.09
46714;BME280;32445;51.376;10.874;2023-11-21T23:28:28;100234.66;;;2.86;59.92
46714;BME280;32445;51.376;10.874;2023-11-21T23:33:28;100228.69;;;2.87;60.04
46714;BME280;32445;51.376;10.874;2023-11-21T23:38:30;100224.44;;;2.89;59.75
46714;BME280;32445;51.376;10.874;2023-11-21T23:43:31;100225.41;;;2.96;59.56
46714;BME280;32445;51.376;10.874;2023-11-21T23:48:31;100228.88;;;2.97;59.20
46714;BME280;32445;51.376;10.874;2023-11-21T23:53:31;100220.19;;;2.88;59.11
46714;BME280;32445;51.376;10.874;2023-11-21T23:58:33;100207.28;;;2.84;59.22
